createdAt,value
2023-11-13T00:00:57.416Z,24.62
2023-11-13T00:02:59.087Z,24.62
2023-11-13T00:05:00.670Z,24.58
2023-11-13T00:07:02.367Z,24.56
2023-11-13T00:09:05.163Z,24.55
2023-11-13T00:11:06.886Z,24.54
2023-11-13T00:13:08.384Z,24.55
2023-11-13T00:15:10.786Z,24.56
2023-11-13T00:17:12.569Z,24.62
2023-11-13T00:19:14.120Z,24.62
2023-11-13T00:21:16.971Z,24.61
2023-11-13T00:23:18.625Z,24.60
2023-11-13T00:25:20.192Z,24.63
2023-11-13T00:27:21.795Z,24.62
2023-11-13T00:29:23.345Z,24.59
2023-11-13T00:31:25.205Z,24.58
2023-11-13T00:33:27.078Z,24.57
2023-11-13T00:35:28.501Z,24.58
2023-11-13T00:37:30.068Z,24.59
2023-11-13T00:39:33.234Z,24.58
2023-11-13T00:41:34.992Z,24.64
2023-11-13T00:43:36.525Z,24.66
2023-11-13T00:45:38.286Z,24.65
2023-11-13T00:47:39.829Z,24.64
2023-11-13T00:49:41.450Z,24.62
2023-11-13T00:51:42.894Z,24.63
2023-11-13T00:53:44.731Z,24.60
2023-11-13T00:55:46.318Z,24.61
2023-11-13T00:57:48.003Z,24.61
2023-11-13T00:59:49.568Z,24.62
2023-11-13T01:01:52.085Z,24.62
2023-11-13T01:03:54.308Z,24.63
2023-11-13T01:05:55.895Z,24.66
2023-11-13T01:07:57.596Z,24.69
2023-11-13T01:09:59.077Z,24.68
2023-11-13T01:12:00.787Z,24.66
2023-11-13T01:14:02.308Z,24.65
2023-11-13T01:16:06.062Z,24.64
2023-11-13T01:18:07.876Z,24.62
2023-11-13T01:20:09.833Z,24.64
2023-11-13T01:22:11.603Z,24.63
2023-11-13T01:24:13.287Z,24.67
2023-11-13T01:26:15.472Z,24.65
2023-11-13T01:28:17.665Z,24.69
2023-11-13T01:30:19.768Z,24.71
2023-11-13T01:32:21.386Z,24.72
2023-11-13T01:34:22.991Z,24.73
2023-11-13T01:36:24.679Z,24.72
2023-11-13T01:38:28.058Z,24.72
2023-11-13T01:40:29.742Z,24.70
2023-11-13T01:42:31.445Z,24.70
2023-11-13T01:44:33.159Z,24.70
2023-11-13T01:46:35.219Z,24.65
2023-11-13T01:48:36.961Z,24.71
2023-11-13T01:50:39.372Z,24.71
2023-11-13T01:52:42.652Z,24.75
2023-11-13T01:54:44.466Z,24.76
2023-11-13T01:56:46.940Z,24.77
2023-11-13T01:58:49.473Z,24.67
2023-11-13T02:02:59.904Z,24.73
2023-11-13T02:05:03.151Z,24.72
2023-11-13T02:07:05.700Z,24.69
2023-11-13T02:09:11.247Z,24.70
2023-11-13T02:11:13.294Z,24.76
2023-11-13T02:13:15.957Z,24.76
2023-11-13T02:15:17.926Z,24.76
2023-11-13T02:17:19.886Z,24.78
2023-11-13T02:19:21.628Z,24.79
2023-11-13T02:21:23.148Z,24.78
2023-11-13T02:23:24.786Z,24.76
2023-11-13T02:25:26.970Z,24.75
2023-11-13T02:27:30.365Z,24.76
2023-11-13T02:29:31.921Z,24.74
2023-11-13T02:31:33.541Z,24.74
2023-11-13T02:33:35.153Z,24.76
2023-11-13T02:35:36.750Z,24.72
2023-11-13T02:37:38.307Z,24.77
2023-11-13T02:39:40.010Z,24.77
2023-11-13T02:41:41.516Z,24.80
2023-11-13T02:43:43.129Z,24.78
2023-11-13T02:45:45.040Z,24.78
2023-11-13T02:47:46.628Z,24.79
2023-11-13T02:51:54.776Z,24.75
2023-11-13T02:53:56.823Z,24.77
2023-11-13T02:55:58.404Z,24.76
2023-11-13T02:58:00.058Z,24.75
2023-11-13T03:00:01.976Z,24.81
2023-11-13T03:02:03.730Z,24.80
2023-11-13T03:04:05.597Z,24.82
2023-11-13T03:06:07.531Z,24.83
2023-11-13T03:08:09.759Z,24.81
2023-11-13T03:10:11.932Z,24.80
2023-11-13T03:14:20.479Z,24.79
2023-11-13T03:16:22.322Z,24.79
2023-11-13T03:18:23.983Z,24.78
2023-11-13T03:20:25.712Z,24.79
2023-11-13T03:22:27.248Z,24.79
2023-11-13T03:24:30.017Z,24.77
2023-11-13T03:26:31.755Z,24.80
2023-11-13T03:28:33.415Z,24.82
2023-11-13T03:30:37.315Z,24.82
2023-11-13T03:32:38.945Z,24.80
2023-11-13T03:34:42.010Z,24.80
2023-11-13T03:36:43.657Z,24.78
2023-11-13T03:38:45.259Z,24.78
2023-11-13T03:40:46.851Z,24.79
2023-11-13T03:42:48.497Z,24.74
2023-11-13T03:44:49.983Z,24.80
2023-11-13T03:46:52.401Z,24.81
2023-11-13T03:48:54.082Z,24.84
2023-11-13T03:50:55.725Z,24.86
2023-11-13T03:52:57.435Z,24.84
2023-11-13T03:54:59.233Z,24.86
2023-11-13T03:57:00.828Z,24.74
2023-11-13T03:59:02.643Z,24.83
2023-11-13T04:01:04.472Z,24.80
2023-11-13T04:03:06.485Z,24.81
2023-11-13T04:05:08.639Z,24.84
2023-11-13T04:07:10.457Z,24.85
2023-11-13T04:09:12.056Z,24.87
2023-11-13T04:13:21.207Z,24.91
2023-11-13T04:15:22.847Z,24.91
2023-11-13T04:17:24.588Z,24.92
2023-11-13T04:19:27.234Z,24.91
2023-11-13T04:21:32.651Z,24.89
2023-11-13T04:23:34.242Z,24.90
2023-11-13T04:25:36.230Z,24.90
2023-11-13T04:27:37.894Z,24.88
2023-11-13T04:29:39.344Z,24.91
2023-11-13T04:31:40.925Z,24.90
2023-11-13T04:35:48.953Z,24.93
2023-11-13T04:37:50.628Z,24.95
2023-11-13T04:39:52.210Z,24.95
2023-11-13T04:41:53.763Z,24.93
2023-11-13T04:43:55.380Z,24.90
2023-11-13T04:45:57.133Z,24.90
2023-11-13T04:47:58.900Z,24.90
2023-11-13T04:50:00.969Z,24.88
2023-11-13T04:52:03.730Z,24.90
2023-11-13T04:54:05.645Z,24.93
2023-11-13T04:56:10.471Z,24.92
2023-11-13T04:58:12.156Z,24.96
2023-11-13T05:00:13.990Z,24.96
2023-11-13T05:02:16.357Z,24.96
2023-11-13T05:04:18.267Z,24.96
2023-11-13T05:06:19.958Z,24.96
2023-11-13T05:08:21.513Z,24.95
2023-11-13T05:10:23.150Z,24.94
2023-11-13T05:12:24.848Z,24.90
2023-11-13T05:14:26.323Z,24.92
2023-11-13T05:16:29.943Z,24.92
2023-11-13T05:18:32.054Z,24.96
2023-11-13T05:20:33.886Z,24.97
2023-11-13T05:22:35.448Z,24.98
2023-11-13T05:24:37.037Z,24.97
2023-11-13T05:26:38.647Z,24.99
2023-11-13T05:28:40.408Z,24.98
2023-11-13T05:30:42.112Z,24.97
2023-11-13T05:32:43.748Z,24.96
2023-11-13T05:34:45.303Z,24.94
2023-11-13T05:36:47.602Z,24.93
2023-11-13T05:38:49.237Z,24.97
2023-11-13T05:40:50.896Z,24.98
2023-11-13T05:42:52.853Z,24.95
2023-11-13T05:44:55.316Z,25.01
2023-11-13T05:46:57.075Z,25.01
2023-11-13T05:48:58.847Z,25.03
2023-11-13T05:51:00.804Z,25.02
2023-11-13T05:53:02.468Z,24.99
2023-11-13T05:55:04.218Z,25.00
2023-11-13T05:57:05.845Z,24.98
2023-11-13T05:59:07.317Z,24.98
2023-11-13T06:01:09.992Z,24.97
2023-11-13T06:03:11.843Z,25.00
2023-11-13T06:05:13.886Z,25.03
2023-11-13T06:07:15.661Z,25.05
2023-11-13T06:09:17.180Z,25.06
2023-11-13T06:11:20.576Z,25.06
2023-11-13T06:13:22.506Z,25.06
2023-11-13T06:15:24.143Z,25.06
2023-11-13T06:17:26.703Z,25.05
2023-11-13T06:19:28.335Z,25.05
2023-11-13T06:21:29.881Z,25.00
2023-11-13T06:23:31.477Z,25.02
2023-11-13T06:25:34.018Z,25.03
2023-11-13T06:27:35.997Z,25.07
2023-11-13T06:29:37.709Z,25.10
2023-11-13T06:31:39.471Z,25.12
2023-11-13T06:33:41.112Z,25.13
2023-11-13T06:35:42.733Z,25.13
2023-11-13T06:37:44.420Z,25.11
2023-11-13T06:39:45.918Z,25.12
2023-11-13T06:41:49.854Z,25.09
2023-11-13T06:43:53.440Z,25.10
2023-11-13T06:45:55.198Z,25.10
2023-11-13T06:47:56.889Z,25.11
2023-11-13T06:49:58.684Z,25.12
2023-11-13T06:52:00.431Z,25.09
2023-11-13T06:54:02.049Z,25.13
2023-11-13T06:56:04.063Z,25.16
2023-11-13T06:58:05.697Z,25.18
2023-11-13T07:00:09.804Z,25.18
2023-11-13T07:02:12.119Z,25.14
2023-11-13T07:04:13.967Z,25.14
2023-11-13T07:06:15.902Z,25.13
2023-11-13T07:08:17.566Z,25.11
2023-11-13T07:10:20.177Z,25.11
2023-11-13T07:12:22.132Z,25.09
2023-11-13T07:14:24.112Z,25.12
2023-11-13T07:16:25.861Z,25.13
2023-11-13T07:18:27.460Z,25.16
2023-11-13T07:20:29.214Z,25.16
2023-11-13T07:22:32.513Z,25.17
2023-11-13T07:24:37.516Z,25.15
2023-11-13T07:26:39.023Z,25.13
2023-11-13T07:28:40.604Z,25.11
2023-11-13T07:30:42.446Z,25.10
2023-11-13T07:32:44.021Z,25.07
2023-11-13T07:34:45.610Z,25.07
2023-11-13T07:36:48.510Z,25.08
2023-11-13T07:38:51.284Z,25.10
2023-11-13T07:40:53.845Z,25.11
2023-11-13T07:42:55.831Z,25.12
2023-11-13T07:44:59.638Z,25.12
2023-11-13T07:47:01.631Z,25.12
2023-11-13T07:49:03.560Z,25.11
2023-11-13T07:51:06.147Z,25.10
2023-11-13T07:53:09.502Z,25.10
2023-11-13T07:55:14.823Z,25.08
2023-11-13T07:57:16.444Z,25.09
2023-11-13T07:59:17.919Z,25.09
2023-11-13T08:01:20.461Z,25.11
2023-11-13T08:03:22.658Z,25.13
2023-11-13T08:05:26.341Z,25.15
2023-11-13T08:07:27.847Z,25.17
2023-11-13T08:09:29.480Z,25.17
2023-11-13T08:11:31.140Z,25.17
2023-11-13T08:13:33.303Z,25.16
2023-11-13T08:15:35.437Z,25.16
2023-11-13T08:17:37.131Z,25.16
2023-11-13T08:19:38.636Z,25.16
2023-11-13T08:21:40.273Z,25.16
2023-11-13T08:23:41.787Z,25.17
2023-11-13T08:25:47.478Z,25.19
2023-11-13T08:27:52.770Z,25.20
2023-11-13T08:29:54.818Z,25.21
2023-11-13T08:31:56.675Z,25.23
2023-11-13T08:33:58.295Z,25.22
2023-11-13T08:36:01.207Z,25.20
2023-11-13T08:38:03.608Z,25.20
2023-11-13T08:40:05.986Z,25.19
2023-11-13T08:42:08.328Z,25.19
2023-11-13T08:44:09.813Z,25.18
2023-11-13T08:46:12.505Z,25.19
2023-11-13T08:48:14.107Z,25.20
2023-11-13T08:50:16.306Z,25.21
2023-11-13T08:52:21.370Z,25.22
2023-11-13T08:54:22.915Z,25.23
2023-11-13T08:56:24.399Z,25.22
2023-11-13T08:58:27.429Z,25.23
2023-11-13T09:00:41.975Z,25.20
2023-11-13T09:02:44.304Z,25.19
2023-11-13T09:04:45.817Z,25.18
2023-11-13T09:06:47.282Z,25.18
2023-11-13T09:08:50.666Z,25.18
2023-11-13T09:10:52.115Z,25.18
2023-11-13T09:12:57.011Z,25.19
2023-11-13T09:14:58.435Z,25.20
2023-11-13T09:17:11.154Z,25.22
2023-11-13T09:19:12.812Z,25.23
2023-11-13T09:21:16.029Z,25.23
2023-11-13T09:23:18.486Z,25.23
2023-11-13T09:25:20.372Z,25.20
2023-11-13T09:27:21.923Z,25.20
2023-11-13T09:29:24.188Z,25.18
2023-11-13T09:31:25.716Z,25.18
2023-11-13T09:33:29.503Z,25.18
2023-11-13T09:35:31.522Z,25.19
2023-11-13T09:37:33.225Z,25.20
2023-11-13T09:39:40.167Z,25.22
2023-11-13T09:41:46.242Z,25.22
2023-11-13T09:43:47.927Z,25.22
2023-11-13T09:45:53.453Z,25.22
2023-11-13T09:48:00.558Z,25.21
2023-11-13T09:50:16.649Z,25.22
2023-11-13T09:52:19.716Z,25.22
2023-11-13T09:54:22.117Z,25.21
2023-11-13T09:56:24.647Z,25.22
2023-11-13T09:58:27.234Z,25.23
2023-11-13T10:00:33.375Z,25.24
2023-11-13T10:02:35.252Z,25.23
2023-11-13T10:04:37.346Z,25.25
2023-11-13T10:06:41.002Z,25.26
2023-11-13T10:08:43.396Z,25.28
2023-11-13T10:10:45.366Z,25.27
2023-11-13T10:12:46.952Z,25.27
2023-11-13T10:15:01.161Z,25.24
2023-11-13T10:17:02.779Z,25.22
2023-11-13T10:19:14.600Z,25.20
2023-11-13T10:21:32.540Z,25.20
2023-11-13T10:23:36.145Z,25.22
2023-11-13T10:25:47.054Z,25.23
2023-11-13T10:28:02.643Z,25.23
2023-11-13T10:30:05.001Z,25.24
2023-11-13T10:32:06.809Z,25.24
2023-11-13T10:34:10.715Z,25.22
2023-11-13T10:36:18.689Z,25.20
2023-11-13T10:38:25.659Z,25.17
2023-11-13T10:40:28.239Z,25.15
2023-11-13T10:42:29.699Z,25.15
2023-11-13T10:44:38.008Z,25.16
2023-11-13T10:46:40.402Z,25.19
2023-11-13T10:48:43.805Z,25.23
2023-11-13T10:50:46.049Z,25.23
2023-11-13T10:52:49.132Z,25.24
2023-11-13T10:54:55.099Z,25.25
2023-11-13T10:56:57.194Z,25.25
2023-11-13T10:58:59.177Z,25.25
2023-11-13T11:01:01.709Z,25.23
2023-11-13T11:03:06.990Z,25.23
2023-11-13T11:05:12.757Z,25.24
2023-11-13T11:07:15.315Z,25.27
2023-11-13T11:09:19.337Z,25.28
2023-11-13T11:11:23.251Z,25.29
2023-11-13T11:13:25.024Z,25.32
2023-11-13T11:15:44.454Z,25.32
2023-11-13T11:17:49.112Z,25.33
2023-11-13T11:19:54.564Z,25.32
2023-11-13T11:22:01.502Z,25.31
2023-11-13T11:24:05.782Z,25.31
2023-11-13T11:28:44.105Z,25.31
2023-11-13T11:30:48.047Z,25.33
2023-11-13T11:32:56.283Z,25.35
2023-11-13T11:35:05.421Z,25.37
2023-11-13T11:37:09.932Z,25.38
2023-11-13T11:39:13.120Z,25.38
2023-11-13T11:41:38.233Z,25.39
2023-11-13T11:43:41.960Z,25.39
2023-11-13T11:45:50.258Z,25.39
2023-11-13T11:47:54.951Z,25.37
2023-11-13T11:49:57.821Z,25.37
2023-11-13T11:52:10.243Z,25.39
2023-11-13T11:54:12.310Z,25.41
2023-11-13T11:56:13.860Z,25.44
2023-11-13T11:58:16.423Z,25.44
2023-11-13T12:00:21.906Z,25.45
2023-11-13T12:02:24.298Z,25.47
2023-11-13T12:04:27.152Z,25.45
2023-11-13T12:06:30.926Z,25.44
2023-11-13T12:08:32.873Z,25.43
2023-11-13T12:10:35.095Z,25.42
2023-11-13T12:12:39.917Z,25.40
2023-11-13T12:14:42.278Z,25.41
2023-11-13T12:16:44.191Z,25.42
2023-11-13T12:18:45.679Z,25.44
2023-11-13T12:20:47.273Z,25.45
2023-11-13T12:22:48.868Z,25.46
2023-11-13T12:24:52.050Z,25.48
2023-11-13T12:26:57.473Z,25.48
2023-11-13T12:28:59.195Z,25.48
2023-11-13T12:31:14.832Z,25.48
2023-11-13T12:33:16.472Z,25.46
2023-11-13T12:35:18.488Z,25.45
2023-11-13T12:37:20.749Z,25.45
2023-11-13T12:39:24.074Z,25.44
2023-11-13T12:41:25.928Z,25.45
2023-11-13T12:43:28.564Z,25.48
2023-11-13T12:45:30.268Z,25.49
2023-11-13T12:47:31.778Z,25.49
2023-11-13T12:49:33.403Z,25.51
2023-11-13T12:51:36.012Z,25.51
2023-11-13T12:53:37.583Z,25.51
2023-11-13T12:55:44.171Z,25.49
2023-11-13T12:57:52.379Z,25.48
2023-11-13T12:59:53.850Z,25.49
2023-11-13T13:01:56.103Z,25.50
2023-11-13T13:03:57.711Z,25.52
2023-11-13T13:06:00.310Z,25.54
2023-11-13T13:08:02.785Z,25.55
2023-11-13T13:10:07.719Z,25.57
2023-11-13T13:12:12.081Z,25.59
2023-11-13T13:14:18.326Z,25.59
2023-11-13T13:16:20.151Z,25.59
2023-11-13T13:18:24.084Z,25.58
2023-11-13T13:20:33.959Z,25.57
2023-11-13T13:22:37.285Z,25.56
2023-11-13T13:24:41.424Z,25.56
2023-11-13T13:26:42.992Z,25.57
2023-11-13T13:28:44.608Z,25.59
2023-11-13T13:30:46.187Z,25.60
2023-11-13T13:32:48.066Z,25.62
2023-11-13T13:34:49.904Z,25.63
2023-11-13T13:36:52.249Z,25.64
2023-11-13T13:38:53.809Z,25.64
2023-11-13T13:40:55.349Z,25.63
2023-11-13T13:43:00.690Z,25.61
2023-11-13T13:45:02.381Z,25.62
2023-11-13T13:47:04.408Z,25.61
2023-11-13T13:49:07.015Z,25.62
2023-11-13T13:51:09.071Z,25.63
2023-11-13T13:53:15.616Z,25.65
2023-11-13T13:55:17.302Z,25.67
2023-11-13T13:57:18.950Z,25.70
2023-11-13T13:59:23.331Z,25.70
2023-11-13T14:01:24.890Z,25.71
2023-11-13T14:03:28.271Z,25.72
2023-11-13T14:05:30.302Z,25.71
2023-11-13T14:07:32.005Z,25.71
2023-11-13T14:09:34.424Z,25.68
2023-11-13T14:11:44.190Z,25.70
2023-11-13T14:13:48.713Z,25.71
2023-11-13T14:16:03.542Z,25.72
2023-11-13T14:18:12.992Z,25.76
2023-11-13T14:20:17.701Z,25.77
2023-11-13T14:22:22.879Z,25.78
2023-11-13T14:24:26.807Z,25.79
2023-11-13T14:26:28.383Z,25.78
2023-11-13T14:28:31.822Z,25.78
2023-11-13T14:30:33.486Z,25.77
2023-11-13T14:32:35.698Z,25.77
2023-11-13T14:34:37.517Z,25.77
2023-11-13T14:36:39.060Z,25.76
2023-11-13T14:38:40.878Z,25.77
2023-11-13T14:40:43.047Z,25.78
2023-11-13T14:42:45.661Z,25.79
2023-11-13T14:44:50.306Z,25.79
2023-11-13T14:46:53.739Z,25.79
2023-11-13T14:48:57.211Z,25.79
2023-11-13T14:50:59.219Z,25.77
2023-11-13T14:53:00.719Z,25.77
2023-11-13T14:55:02.217Z,25.75
2023-11-13T14:57:06.694Z,25.75
2023-11-13T14:59:08.414Z,25.75
2023-11-13T15:01:10.305Z,25.77
2023-11-13T15:03:11.991Z,25.78
2023-11-13T15:05:13.490Z,25.80
2023-11-13T15:07:16.946Z,25.81
2023-11-13T15:09:18.572Z,25.82
2023-11-13T15:11:20.605Z,25.82
2023-11-13T15:13:22.231Z,25.82
2023-11-13T15:15:23.812Z,25.79
2023-11-13T15:17:25.286Z,25.79
2023-11-13T15:19:27.046Z,25.76
2023-11-13T15:21:28.929Z,25.77
2023-11-13T15:23:39.228Z,25.78
2023-11-13T15:25:49.473Z,25.78
2023-11-13T15:27:51.423Z,25.80
2023-11-13T15:29:52.914Z,25.82
2023-11-13T15:31:54.522Z,25.82
2023-11-13T15:33:56.011Z,25.81
2023-11-13T15:35:57.658Z,25.79
2023-11-13T15:37:59.190Z,25.78
2023-11-13T15:40:01.148Z,25.78
2023-11-13T15:42:03.300Z,25.77
2023-11-13T15:44:05.096Z,25.76
2023-11-13T15:46:09.530Z,25.77
2023-11-13T15:48:11.142Z,25.77
2023-11-13T15:50:17.291Z,25.78
2023-11-13T15:52:19.092Z,25.81
2023-11-13T15:54:20.709Z,25.84
2023-11-13T15:56:22.219Z,25.84
2023-11-13T15:58:23.796Z,25.83
2023-11-13T16:00:25.555Z,25.82
2023-11-13T16:02:27.213Z,25.81
2023-11-13T16:04:28.895Z,25.80
2023-11-13T16:06:30.334Z,25.78
2023-11-13T16:08:31.801Z,25.78
2023-11-13T16:10:33.828Z,25.79
2023-11-13T16:12:35.810Z,25.80
2023-11-13T16:14:37.379Z,25.80
2023-11-13T16:16:39.898Z,25.82
2023-11-13T16:18:41.681Z,25.83
2023-11-13T16:20:43.680Z,25.85
2023-11-13T16:22:46.470Z,25.85
2023-11-13T16:24:49.871Z,25.85
2023-11-13T16:26:53.787Z,25.84
2023-11-13T16:28:56.322Z,25.82
2023-11-13T16:30:57.869Z,25.82
2023-11-13T16:33:03.061Z,25.81
2023-11-13T16:35:05.728Z,25.82
2023-11-13T16:37:09.778Z,25.84
2023-11-13T16:39:13.927Z,25.86
2023-11-13T16:41:15.976Z,25.87
2023-11-13T16:43:17.669Z,25.87
2023-11-13T16:45:21.779Z,25.88
2023-11-13T16:47:23.452Z,25.88
2023-11-13T16:49:25.030Z,25.87
2023-11-13T16:51:27.053Z,25.87
2023-11-13T16:53:29.412Z,25.84
2023-11-13T16:55:37.279Z,25.83
2023-11-13T16:57:39.020Z,25.83
2023-11-13T16:59:40.499Z,25.84
2023-11-13T17:01:42.621Z,25.85
2023-11-13T17:03:44.666Z,25.86
2023-11-13T17:05:51.583Z,25.88
2023-11-13T17:07:55.723Z,25.90
2023-11-13T17:09:57.197Z,25.90
2023-11-13T17:12:00.535Z,25.90
2023-11-13T17:14:03.131Z,25.88
2023-11-13T17:16:05.832Z,25.88
2023-11-13T17:18:07.309Z,25.87
2023-11-13T17:20:11.425Z,25.88
2023-11-13T17:22:13.244Z,25.87
2023-11-13T17:24:14.797Z,25.87
2023-11-13T17:26:16.246Z,25.88
2023-11-13T17:28:18.870Z,25.91
2023-11-13T17:30:20.451Z,25.91
2023-11-13T17:32:22.214Z,25.92
2023-11-13T17:34:24.856Z,25.92
2023-11-13T17:36:26.383Z,25.91
2023-11-13T17:38:28.948Z,25.89
2023-11-13T17:40:30.665Z,25.88
2023-11-13T17:42:32.580Z,25.85
2023-11-13T17:44:34.178Z,25.86
2023-11-13T17:46:35.755Z,25.86
2023-11-13T17:48:37.616Z,25.87
2023-11-13T17:50:39.629Z,25.89
2023-11-13T17:52:41.520Z,25.90
2023-11-13T17:54:46.674Z,25.91
2023-11-13T17:56:50.695Z,25.92
2023-11-13T17:58:52.331Z,25.91
2023-11-13T18:00:55.272Z,25.90
2023-11-13T18:02:57.534Z,25.88
2023-11-13T18:05:00.520Z,25.87
2023-11-13T18:07:02.577Z,25.86
2023-11-13T18:09:04.775Z,25.84
2023-11-13T18:11:06.859Z,25.86
2023-11-13T18:13:09.065Z,25.89
2023-11-13T18:15:11.152Z,25.89
2023-11-13T18:17:12.917Z,25.91
2023-11-13T18:19:14.489Z,25.90
2023-11-13T18:21:16.070Z,25.90
2023-11-13T18:23:17.566Z,25.90
2023-11-13T18:25:19.406Z,25.89
2023-11-13T18:27:20.953Z,25.87
2023-11-13T18:29:22.726Z,25.86
2023-11-13T18:31:24.260Z,25.86
2023-11-13T18:33:32.428Z,25.88
2023-11-13T18:35:34.603Z,25.88
2023-11-13T18:37:40.173Z,25.90
2023-11-13T18:39:41.884Z,25.92
2023-11-13T18:41:43.870Z,25.93
2023-11-13T18:43:45.759Z,25.92
2023-11-13T18:45:51.370Z,25.92
2023-11-13T18:47:53.461Z,25.90
2023-11-13T18:49:55.125Z,25.89
2023-11-13T18:51:56.740Z,25.88
2023-11-13T18:53:59.243Z,25.85
2023-11-13T18:56:01.308Z,25.88
2023-11-13T18:58:02.931Z,25.88
2023-11-13T19:00:06.420Z,25.90
2023-11-13T19:02:08.911Z,25.92
2023-11-13T19:04:10.479Z,25.92
2023-11-13T19:06:18.651Z,25.94
2023-11-13T19:08:20.145Z,25.93
2023-11-13T19:10:21.714Z,25.93
2023-11-13T19:12:23.221Z,25.92
2023-11-13T19:14:24.716Z,25.90
2023-11-13T19:16:26.290Z,25.89
2023-11-13T19:18:28.013Z,25.88
2023-11-13T19:20:29.631Z,25.88
2023-11-13T19:22:31.093Z,25.90
2023-11-13T19:24:33.195Z,25.92
2023-11-13T19:26:34.821Z,25.92
2023-11-13T19:28:36.361Z,25.94
2023-11-13T19:30:39.456Z,25.94
2023-11-13T19:32:46.607Z,25.94
2023-11-13T19:34:53.527Z,25.94
2023-11-13T19:36:55.044Z,25.92
2023-11-13T19:38:56.500Z,25.91
2023-11-13T19:40:58.057Z,25.90
2023-11-13T19:43:00.010Z,25.89
2023-11-13T19:45:01.796Z,25.89
2023-11-13T19:47:03.740Z,25.90
2023-11-13T19:49:08.998Z,25.90
2023-11-13T19:51:11.370Z,25.91
2023-11-13T19:53:13.875Z,25.91
2023-11-13T19:55:16.932Z,25.90
2023-11-13T19:57:18.569Z,25.89
2023-11-13T19:59:20.704Z,25.89
2023-11-13T20:01:22.309Z,25.87
2023-11-13T20:03:25.493Z,25.86
2023-11-13T20:05:31.409Z,25.85
2023-11-13T20:07:33.308Z,25.86
2023-11-13T20:09:35.625Z,25.86
2023-11-13T20:11:37.232Z,25.87
2023-11-13T20:13:40.231Z,25.89
2023-11-13T20:15:41.909Z,25.91
2023-11-13T20:17:44.835Z,25.91
2023-11-13T20:19:46.490Z,25.91
2023-11-13T20:21:47.958Z,25.91
2023-11-13T20:23:49.577Z,25.89
2023-11-13T20:25:52.843Z,25.89
2023-11-13T20:27:54.498Z,25.88
2023-11-13T20:30:03.794Z,25.88
2023-11-13T20:32:08.854Z,25.88
2023-11-13T20:34:10.539Z,25.90
2023-11-13T20:36:12.114Z,25.92
2023-11-13T20:38:13.583Z,25.93
2023-11-13T20:40:16.194Z,25.92
2023-11-13T20:42:17.690Z,25.93
2023-11-13T20:44:19.256Z,25.92
2023-11-13T20:46:20.913Z,25.91
2023-11-13T20:48:22.557Z,25.89
2023-11-13T20:50:24.317Z,25.88
2023-11-13T20:52:25.963Z,25.86
2023-11-13T20:54:27.490Z,25.87
2023-11-13T20:56:29.073Z,25.87
2023-11-13T20:58:30.706Z,25.88
2023-11-13T21:00:32.398Z,25.90
2023-11-13T21:02:34.041Z,25.90
2023-11-13T21:04:35.928Z,25.89
2023-11-13T21:06:38.193Z,25.90
2023-11-13T21:08:39.663Z,25.89
2023-11-13T21:10:41.273Z,25.88
2023-11-13T21:12:44.515Z,25.87
2023-11-13T21:14:46.275Z,25.85
2023-11-13T21:16:48.132Z,25.84
2023-11-13T21:18:49.667Z,25.85
2023-11-13T21:20:52.014Z,25.86
2023-11-13T21:22:54.273Z,25.88
2023-11-13T21:24:55.771Z,25.88
2023-11-13T21:26:57.258Z,25.88
2023-11-13T21:28:58.831Z,25.89
2023-11-13T21:31:01.537Z,25.88
2023-11-13T21:33:03.093Z,25.87
2023-11-13T21:35:11.054Z,25.86
2023-11-13T21:37:12.571Z,25.84
2023-11-13T21:39:14.289Z,25.83
2023-11-13T21:41:15.735Z,25.82
2023-11-13T21:43:18.708Z,25.83
2023-11-13T21:45:20.238Z,25.85
2023-11-13T21:47:22.044Z,25.87
2023-11-13T21:49:23.782Z,25.87
2023-11-13T21:51:25.322Z,25.88
2023-11-13T21:53:27.100Z,25.87
2023-11-13T21:55:28.776Z,25.86
2023-11-13T21:57:30.415Z,25.84
2023-11-13T21:59:31.898Z,25.84
2023-11-13T22:01:33.529Z,25.84
2023-11-13T22:03:36.293Z,25.84
2023-11-13T22:05:37.972Z,25.84
2023-11-13T22:07:42.612Z,25.84
2023-11-13T22:09:45.237Z,25.84
2023-11-13T22:11:46.799Z,25.86
2023-11-13T22:13:48.347Z,25.87
2023-11-13T22:15:52.610Z,25.88
2023-11-13T22:17:54.148Z,25.86
2023-11-13T22:19:55.653Z,25.85
2023-11-13T22:21:57.150Z,25.82
2023-11-13T22:23:59.389Z,25.81
2023-11-13T22:26:00.962Z,25.79
2023-11-13T22:28:02.609Z,25.80
2023-11-13T22:30:04.308Z,25.79
2023-11-13T22:32:07.599Z,25.80
2023-11-13T22:34:10.542Z,25.83
2023-11-13T22:36:12.060Z,25.84
2023-11-13T22:38:13.565Z,25.84
2023-11-13T22:40:15.126Z,25.83
2023-11-13T22:42:16.768Z,25.84
2023-11-13T22:44:18.269Z,25.83
2023-11-13T22:46:20.974Z,25.82
2023-11-13T22:48:22.691Z,25.82
2023-11-13T22:50:24.271Z,25.79
2023-11-13T22:52:25.819Z,25.79
2023-11-13T22:54:27.386Z,25.80
2023-11-13T22:56:28.965Z,25.80
2023-11-13T22:58:30.515Z,25.83
2023-11-13T23:00:38.203Z,25.83
2023-11-13T23:02:39.828Z,25.85
2023-11-13T23:04:41.524Z,25.84
2023-11-13T23:06:44.216Z,25.83
2023-11-13T23:08:46.014Z,25.82
2023-11-13T23:10:49.097Z,25.80
2023-11-13T23:12:50.894Z,25.78
2023-11-13T23:14:52.428Z,25.78
2023-11-13T23:16:54.111Z,25.77
2023-11-13T23:18:56.192Z,25.78
2023-11-13T23:20:57.638Z,25.80
2023-11-13T23:22:59.444Z,25.81
2023-11-13T23:25:01.033Z,25.82
2023-11-13T23:27:02.590Z,25.81
2023-11-13T23:29:04.483Z,25.82
2023-11-13T23:31:06.011Z,25.82
2023-11-13T23:33:09.844Z,25.83
2023-11-13T23:35:11.462Z,25.81
2023-11-13T23:37:13.190Z,25.79
2023-11-13T23:39:15.246Z,25.78
2023-11-13T23:41:16.692Z,25.79
2023-11-13T23:43:19.548Z,25.79
2023-11-13T23:45:21.067Z,25.79
2023-11-13T23:47:23.414Z,25.79
2023-11-13T23:49:27.486Z,25.82
2023-11-13T23:51:29.063Z,25.83
2023-11-13T23:53:30.641Z,25.82
2023-11-13T23:55:32.246Z,25.81
2023-11-13T23:57:33.960Z,25.80
2023-11-13T23:59:35.786Z,25.79
